Time;durP1;ratioP1;P1;durP2;ratioP2;P2;SDS_P1;SDS_P2;PMS_P1;PMS_P2;Temp;Humidity;BMP_temperature;BMP_pressure;BME280_temperature;BME280_humidity;BME280_pressure;Samples;Min_cycle;Max_cycle;Signal;HPM_P1;HPM_P2
2022/05/22 00:01:21;;;;;;;4.72;2.22;;;14.30;72.70;;;;;;5055497;28;20049;-90
2022/05/22 00:03:48;;;;;;;5.13;2.22;;;14.30;72.70;;;;;;5072274;28;20048;-90
2022/05/22 00:06:16;;;;;;;5.45;2.30;;;14.20;72.70;;;;;;5062130;28;20048;-89
2022/05/22 00:08:43;;;;;;;7.80;2.20;;;14.20;72.80;;;;;;5059939;28;20110;-91
2022/05/22 00:11:10;;;;;;;6.32;2.13;;;14.20;72.80;;;;;;5060665;28;20044;-90
2022/05/22 00:13:37;;;;;;;5.85;2.42;;;14.20;72.80;;;;;;5053092;28;20052;-90
2022/05/22 00:18:49;;;;;;;4.88;2.08;;;14.10;72.80;;;;;;5056484;28;20458;-89
2022/05/22 00:21:16;;;;;;;5.07;2.33;;;14.10;72.70;;;;;;5060244;28;20056;-90
2022/05/22 00:23:44;;;;;;;6.07;2.00;;;14.00;72.80;;;;;;5059809;28;20462;-90
2022/05/22 00:26:11;;;;;;;7.45;2.58;;;14.00;72.80;;;;;;5042338;28;20041;-91
2022/05/22 00:28:38;;;;;;;5.75;2.20;;;14.00;72.70;;;;;;5056091;28;20045;-90
2022/05/22 00:31:05;;;;;;;4.18;2.03;;;14.00;72.80;;;;;;5055815;28;20465;-91
2022/05/22 00:33:32;;;;;;;6.30;2.47;;;13.90;72.80;;;;;;5071620;28;20102;-90
2022/05/22 00:35:59;;;;;;;4.82;2.03;;;13.90;72.80;;;;;;5064340;28;20110;-89
2022/05/22 00:38:26;;;;;;;5.18;2.17;;;13.90;72.80;;;;;;5059643;28;20102;-90
2022/05/22 00:40:53;;;;;;;4.22;1.75;;;13.90;72.80;;;;;;5057940;28;20056;-91
2022/05/22 00:43:27;;;;;;;4.88;1.90;;;13.90;72.80;;;;;;5055250;28;20048;-89
2022/05/22 00:45:55;;;;;;;4.90;2.10;;;13.90;72.80;;;;;;5039456;28;20525;-91
2022/05/22 00:48:24;;;;;;;6.63;2.22;;;13.80;72.80;;;;;;5070319;28;20434;-91
2022/05/22 00:50:53;;;;;;;4.50;2.03;;;13.80;72.80;;;;;;5067678;28;20118;-89
2022/05/22 00:53:21;;;;;;;5.93;2.30;;;13.80;72.80;;;;;;5063459;28;20486;-90
2022/05/22 00:55:48;;;;;;;5.13;1.98;;;13.70;72.80;;;;;;5061203;28;20094;-90
2022/05/22 00:58:27;;;;;;;4.55;1.90;;;13.70;72.90;;;;;;5059090;28;20049;-91
2022/05/22 01:00:54;;;;;;;7.85;2.17;;;13.70;72.90;;;;;;5060074;28;20052;-90
2022/05/22 01:03:27;;;;;;;7.57;2.25;;;13.70;72.90;;;;;;5063295;28;20121;-90
2022/05/22 01:06:09;;;;;;;3.45;1.80;;;13.60;72.90;;;;;;5069692;28;20052;-90
2022/05/22 01:08:37;;;;;;;5.45;2.15;;;13.60;72.90;;;;;;5070928;28;20052;-91
2022/05/22 01:11:19;;;;;;;4.00;1.77;;;13.60;72.90;;;;;;5063177;28;20510;-90
2022/05/22 01:13:56;;;;;;;7.18;2.05;;;13.60;72.90;;;;;;5060535;28;20037;-90
2022/05/22 01:16:25;;;;;;;4.82;1.83;;;13.60;72.90;;;;;;5058718;28;20052;-90
2022/05/22 01:18:54;;;;;;;6.88;1.83;;;13.50;72.90;;;;;;5060861;28;20414;-91
2022/05/22 01:21:25;;;;;;;5.93;1.83;;;13.50;72.90;;;;;;5073107;28;20052;-91
2022/05/22 01:23:52;;;;;;;7.40;1.92;;;13.50;72.90;;;;;;5068433;28;20045;-90
2022/05/22 01:26:19;;;;;;;5.55;1.98;;;13.50;72.90;;;;;;5063206;28;20090;-90
2022/05/22 01:28:46;;;;;;;5.63;2.10;;;13.40;72.90;;;;;;5060254;28;20106;-91
2022/05/22 01:31:14;;;;;;;4.50;1.95;;;13.40;72.90;;;;;;5058351;28;20114;-90
2022/05/22 01:33:41;;;;;;;5.35;2.00;;;13.40;72.90;;;;;;5062058;28;20044;-91
2022/05/22 01:36:09;;;;;;;4.47;1.70;;;13.40;72.90;;;;;;5062736;28;20408;-88
2022/05/22 01:38:38;;;;;;;4.50;1.65;;;13.40;72.90;;;;;;5063021;28;20449;-90
2022/05/22 01:41:05;;;;;;;7.03;1.80;;;13.40;72.90;;;;;;5062647;28;20102;-91
2022/05/22 01:43:33;;;;;;;5.97;2.10;;;13.30;72.90;;;;;;5074377;28;20468;-90
2022/05/22 01:46:01;;;;;;;3.88;1.60;;;13.30;72.90;;;;;;5074853;28;20049;-91
2022/05/22 01:48:28;;;;;;;4.90;1.98;;;13.30;73.00;;;;;;5063048;28;20045;-91
2022/05/22 01:50:55;;;;;;;4.18;1.83;;;13.30;73.00;;;;;;5062539;28;20098;-91
2022/05/22 01:53:23;;;;;;;4.18;1.73;;;13.20;73.00;;;;;;5064803;28;20044;-90
2022/05/22 01:55:50;;;;;;;7.03;2.10;;;13.30;73.00;;;;;;5074088;28;20048;-90
2022/05/22 01:58:17;;;;;;;6.30;1.98;;;13.20;73.00;;;;;;5057830;28;20041;-90
2022/05/22 02:00:44;;;;;;;4.70;2.00;;;13.20;73.00;;;;;;5074452;28;20075;-91
2022/05/22 02:03:11;;;;;;;5.53;2.00;;;13.20;73.00;;;;;;5064435;28;20044;-90
2022/05/22 02:05:39;;;;;;;7.03;1.92;;;13.10;73.00;;;;;;5062035;28;20053;-89
2022/05/22 02:08:24;;;;;;;3.80;1.85;;;13.10;73.00;;;;;;5062195;28;20036;-89
2022/05/22 02:10:54;;;;;;;4.90;1.80;;;13.10;73.00;;;;;;5060159;28;20044;-90
2022/05/22 02:13:24;;;;;;;5.78;1.88;;;13.10;73.00;;;;;;5057484;28;20049;-90
2022/05/22 02:15:52;;;;;;;6.28;2.15;;;13.00;73.10;;;;;;5059983;28;20110;-90
2022/05/22 02:18:19;;;;;;;3.28;1.70;;;13.10;73.10;;;;;;5061881;28;20580;-90
2022/05/22 02:20:47;;;;;;;4.53;1.65;;;13.00;73.10;;;;;;5061891;28;20060;-91
2022/05/22 02:23:16;;;;;;;6.47;2.10;;;13.00;73.10;;;;;;5063317;28;20051;-90
2022/05/22 02:25:47;;;;;;;5.93;2.30;;;13.00;73.10;;;;;;5073416;28;20090;-91
2022/05/22 02:28:17;;;;;;;3.40;1.45;;;12.90;73.10;;;;;;5057455;28;20103;-90
2022/05/22 02:30:50;;;;;;;5.35;2.28;;;12.90;73.20;;;;;;5073989;28;20486;-90
2022/05/22 02:33:18;;;;;;;3.85;1.70;;;12.90;73.20;;;;;;5063403;28;20049;-90
2022/05/22 02:35:45;;;;;;;7.22;2.20;;;12.90;73.20;;;;;;5061977;28;20052;-90
2022/05/22 02:38:12;;;;;;;4.57;1.92;;;12.90;73.20;;;;;;5062254;28;20044;-91
2022/05/22 02:40:39;;;;;;;5.85;1.83;;;12.90;73.20;;;;;;5073243;28;20044;-90
2022/05/22 02:43:07;;;;;;;5.05;1.83;;;12.90;73.20;;;;;;5057395;28;20110;-90
2022/05/22 02:45:37;;;;;;;5.50;2.17;;;12.90;73.30;;;;;;5061150;28;20071;-90
2022/05/22 02:48:05;;;;;;;9.50;1.70;;;12.80;73.30;;;;;;5061505;28;20102;-90
2022/05/22 02:50:33;;;;;;;6.55;2.08;;;12.80;73.30;;;;;;5065030;28;20055;-91
2022/05/22 02:53:00;;;;;;;5.00;1.70;;;12.80;73.30;;;;;;5073015;28;20077;-89
2022/05/22 02:55:27;;;;;;;4.07;1.90;;;12.80;73.30;;;;;;5056885;28;20064;-91
2022/05/22 02:57:54;;;;;;;5.13;1.88;;;12.80;73.30;;;;;;5058800;28;20070;-90
2022/05/22 03:00:26;;;;;;;3.60;1.60;;;12.70;73.30;;;;;;5071491;28;20040;-91
2022/05/22 03:02:54;;;;;;;4.57;1.30;;;12.80;73.30;;;;;;5072509;28;20048;-91
2022/05/22 03:05:21;;;;;;;3.42;1.50;;;12.70;73.30;;;;;;5070827;28;20091;-91
2022/05/22 03:07:48;;;;;;;5.20;1.73;;;12.70;73.30;;;;;;5058769;28;20095;-90
2022/05/22 03:10:17;;;;;;;5.03;1.50;;;12.70;73.40;;;;;;5072762;28;20048;-90
2022/05/22 03:12:44;;;;;;;4.07;1.50;;;12.70;73.30;;;;;;5059412;28;20057;-90
2022/05/22 03:15:13;;;;;;;5.68;1.58;;;12.60;73.40;;;;;;5060488;28;20430;-92
2022/05/22 03:17:40;;;;;;;3.40;1.55;;;12.60;73.40;;;;;;5064914;28;20044;-91
2022/05/22 03:20:07;;;;;;;5.15;2.00;;;12.60;73.40;;;;;;5072510;28;20048;-90
2022/05/22 03:22:34;;;;;;;3.53;1.50;;;12.60;73.40;;;;;;5056607;28;20587;-89
2022/05/22 03:25:03;;;;;;;4.13;1.50;;;12.50;73.40;;;;;;5068637;28;20453;-90
2022/05/22 03:27:30;;;;;;;4.43;1.55;;;12.50;73.40;;;;;;5061007;28;20053;-90
2022/05/22 03:29:58;;;;;;;3.45;1.60;;;12.50;73.40;;;;;;5060541;28;20118;-90
2022/05/22 03:32:25;;;;;;;5.72;1.80;;;12.50;73.40;;;;;;5062870;28;20125;-90
2022/05/22 03:34:56;;;;;;;3.63;1.50;;;12.50;73.40;;;;;;5072250;28;20564;-90
2022/05/22 03:37:25;;;;;;;6.75;1.90;;;12.50;73.40;;;;;;5038155;28;20106;-91
2022/05/22 03:39:52;;;;;;;3.20;1.40;;;12.50;73.40;;;;;;5058332;28;20049;-92
2022/05/22 03:42:20;;;;;;;4.03;1.50;;;12.40;73.40;;;;;;5060679;28;20502;-90
2022/05/22 03:44:47;;;;;;;3.97;1.52;;;12.40;73.40;;;;;;5060445;28;20099;-90
2022/05/22 03:47:14;;;;;;;3.47;1.65;;;12.40;73.40;;;;;;5060584;28;20110;-90
2022/05/22 03:49:45;;;;;;;3.85;1.88;;;12.40;73.40;;;;;;5057425;28;20044;-91
2022/05/22 03:52:12;;;;;;;4.13;1.70;;;12.40;73.30;;;;;;5056120;28;20049;-90
2022/05/22 03:54:39;;;;;;;3.85;1.90;;;12.30;73.40;;;;;;5071582;28;20044;-90
2022/05/22 03:57:09;;;;;;;5.53;2.28;;;12.40;73.30;;;;;;5071748;28;20595;-91
2022/05/22 03:59:42;;;;;;;4.68;1.98;;;12.30;73.40;;;;;;5067486;28;20535;-91
2022/05/22 04:02:08;;;;;;;6.07;1.77;;;12.30;73.40;;;;;;5043015;28;20460;-89
2022/05/22 04:04:35;;;;;;;4.75;1.38;;;12.30;73.40;;;;;;5054091;28;20048;-92
2022/05/22 04:07:03;;;;;;;5.88;1.80;;;12.20;73.40;;;;;;5066978;28;20049;-90
2022/05/22 04:09:30;;;;;;;7.53;2.05;;;12.20;73.40;;;;;;5060165;28;20052;-91
2022/05/22 04:11:56;;;;;;;5.47;1.65;;;12.20;73.40;;;;;;5060285;28;20048;-91
2022/05/22 04:14:24;;;;;;;4.93;1.50;;;12.20;73.40;;;;;;5061977;28;20052;-90
2022/05/22 04:16:51;;;;;;;5.90;1.67;;;12.20;73.40;;;;;;5071134;28;20045;-89
2022/05/22 04:19:18;;;;;;;4.50;1.73;;;12.10;73.40;;;;;;5071790;28;20049;-89
2022/05/22 04:21:45;;;;;;;8.07;2.05;;;12.10;73.40;;;;;;5056577;28;20052;-90
2022/05/22 04:27:05;;;;;;;6.22;1.83;;;12.10;73.50;;;;;;5066623;28;20049;-92
2022/05/22 04:29:34;;;;;;;6.47;1.70;;;12.10;73.50;;;;;;5066377;28;20045;-91
2022/05/22 04:32:02;;;;;;;4.45;1.77;;;12.10;73.50;;;;;;5066059;28;20056;-90
2022/05/22 04:34:29;;;;;;;5.03;1.92;;;12.00;73.50;;;;;;5061955;28;20513;-91
2022/05/22 04:36:56;;;;;;;5.82;2.03;;;12.00;73.50;;;;;;5078630;28;20114;-90
2022/05/22 04:39:22;;;;;;;5.38;2.05;;;12.00;73.60;;;;;;5067738;28;20044;-90
2022/05/22 04:41:49;;;;;;;5.50;1.58;;;12.00;73.60;;;;;;5066752;28;20103;-90
2022/05/22 04:44:16;;;;;;;4.38;1.85;;;12.00;73.60;;;;;;5066270;28;20509;-93
2022/05/22 04:46:43;;;;;;;3.92;1.70;;;11.90;73.70;;;;;;5062926;28;20093;-90
2022/05/22 04:49:10;;;;;;;7.38;1.77;;;11.90;73.70;;;;;;5062060;28;20056;-90
2022/05/22 04:51:37;;;;;;;4.85;1.83;;;11.90;73.70;;;;;;5078355;28;20048;-91
2022/05/22 04:54:04;;;;;;;5.38;1.80;;;11.90;73.80;;;;;;5070169;28;20576;-90
2022/05/22 04:56:32;;;;;;;5.22;1.80;;;11.90;73.80;;;;;;5066224;28;20056;-90
2022/05/22 04:58:59;;;;;;;3.95;1.60;;;11.90;73.90;;;;;;5064996;28;20086;-90
2022/05/22 05:01:26;;;;;;;4.38;1.70;;;11.90;73.90;;;;;;5078023;28;20061;-90
2022/05/22 05:03:53;;;;;;;6.93;2.03;;;11.90;74.00;;;;;;5078506;28;20051;-92
2022/05/22 05:06:20;;;;;;;4.47;1.60;;;11.90;74.00;;;;;;5067822;28;20515;-90
2022/05/22 05:08:47;;;;;;;7.28;1.80;;;11.90;74.00;;;;;;5054173;28;20053;-90
2022/05/22 05:11:14;;;;;;;4.75;2.00;;;11.90;74.10;;;;;;5077096;28;20045;-90
2022/05/22 05:13:40;;;;;;;7.25;2.00;;;11.90;74.10;;;;;;5062060;28;20056;-92
2022/05/22 05:16:12;;;;;;;5.15;1.83;;;12.00;74.20;;;;;;5078340;28;20048;-89
2022/05/22 05:18:40;;;;;;;3.53;1.80;;;12.00;74.30;;;;;;5077343;28;20044;-89
2022/05/22 05:21:13;;;;;;;5.00;1.55;;;12.00;74.30;;;;;;5077760;28;20052;-91
2022/05/22 05:23:40;;;;;;;5.35;2.20;;;12.00;74.40;;;;;;5077677;28;20465;-91
2022/05/22 05:26:08;;;;;;;4.80;1.77;;;12.00;74.40;;;;;;5077468;28;20048;-92
2022/05/22 05:28:35;;;;;;;6.57;1.85;;;12.00;74.40;;;;;;5077452;28;20060;-91
2022/05/22 05:31:03;;;;;;;4.65;1.90;;;12.00;74.50;;;;;;5073917;28;20472;-91
2022/05/22 05:33:33;;;;;;;5.70;2.10;;;12.10;74.50;;;;;;5066369;28;20053;-90
2022/05/22 05:36:01;;;;;;;4.22;1.75;;;12.00;74.50;;;;;;5047168;28;20052;-90
2022/05/22 05:38:28;;;;;;;4.25;1.90;;;12.10;74.60;;;;;;5065421;28;20048;-91
2022/05/22 05:41:15;;;;;;;4.65;1.70;;;12.10;74.60;;;;;;5072979;28;20514;-91
2022/05/22 05:43:42;;;;;;;3.45;1.70;;;12.10;74.70;;;;;;5059512;28;20044;-90
2022/05/22 05:46:10;;;;;;;5.50;1.70;;;12.10;74.70;;;;;;5058307;28;20110;-90
2022/05/22 05:48:41;;;;;;;5.00;1.50;;;12.20;74.80;;;;;;5073910;28;20499;-90
2022/05/22 05:51:08;;;;;;;8.38;1.63;;;12.20;74.80;;;;;;5065883;28;20044;-90
2022/05/22 05:53:35;;;;;;;3.60;1.40;;;12.20;74.80;;;;;;5066307;28;20139;-93
2022/05/22 05:56:04;;;;;;;4.28;1.50;;;12.30;74.80;;;;;;5074043;28;20100;-91
2022/05/22 05:58:41;;;;;;;6.07;1.75;;;12.30;74.80;;;;;;5042871;28;20142;-92
2022/05/22 06:01:13;;;;;;;5.53;1.60;;;12.40;74.70;;;;;;5074774;28;20048;-90
2022/05/22 06:03:40;;;;;;;7.50;1.88;;;12.40;74.70;;;;;;5043900;28;20512;-90
2022/05/22 06:06:09;;;;;;;3.72;1.50;;;12.40;74.70;;;;;;5063415;28;20059;-89
2022/05/22 06:08:36;;;;;;;3.47;1.60;;;12.50;74.70;;;;;;5072753;28;20129;-87
2022/05/22 06:11:03;;;;;;;3.33;1.30;;;12.60;74.70;;;;;;5073184;28;20048;-89
2022/05/22 06:13:31;;;;;;;4.18;1.60;;;12.60;74.60;;;;;;5039477;28;20094;-89
2022/05/22 06:15:58;;;;;;;3.83;1.55;;;12.60;74.60;;;;;;5058890;28;20049;-90
2022/05/22 06:18:25;;;;;;;5.05;1.70;;;12.70;74.60;;;;;;5072363;28;20421;-89
2022/05/22 06:20:52;;;;;;;5.75;1.80;;;12.80;74.50;;;;;;5067356;28;20080;-90
2022/05/22 06:23:19;;;;;;;4.15;1.83;;;12.80;74.50;;;;;;5061908;28;20121;-89
2022/05/22 06:25:46;;;;;;;6.30;1.90;;;12.90;74.50;;;;;;5058505;28;20591;-89
2022/05/22 06:28:17;;;;;;;4.95;1.83;;;12.90;74.40;;;;;;5039368;28;20076;-90
2022/05/22 06:30:44;;;;;;;6.10;2.10;;;13.00;74.40;;;;;;5060448;28;20041;-89
2022/05/22 06:33:14;;;;;;;6.47;2.45;;;13.00;74.30;;;;;;5070344;28;20048;-90
2022/05/22 06:35:42;;;;;;;8.55;2.47;;;13.10;74.30;;;;;;5068470;28;20056;-90
2022/05/22 06:40:56;;;;;;;6.00;2.30;;;13.30;74.20;;;;;;5072603;28;20445;-90
2022/05/22 06:43:23;;;;;;;7.80;2.40;;;13.40;74.20;;;;;;5056686;28;20055;-91
2022/05/22 06:45:50;;;;;;;8.05;2.53;;;13.40;74.20;;;;;;5059433;28;20052;-90
2022/05/22 06:48:18;;;;;;;7.57;2.58;;;13.50;74.10;;;;;;5060841;28;20526;-91
2022/05/22 06:50:45;;;;;;;5.35;2.10;;;13.60;74.10;;;;;;5061409;28;20572;-91
2022/05/22 06:53:12;;;;;;;6.53;2.50;;;13.60;74.00;;;;;;5061207;28;20044;-91
2022/05/22 06:55:40;;;;;;;10.60;3.10;;;13.70;73.90;;;;;;5056903;28;20445;-90
2022/05/22 06:58:08;;;;;;;6.30;2.33;;;13.80;73.90;;;;;;5039265;28;20137;-91
2022/05/22 07:00:35;;;;;;;5.25;2.00;;;13.90;73.80;;;;;;5043173;28;20056;-91
2022/05/22 07:03:02;;;;;;;5.80;2.30;;;13.90;73.70;;;;;;5051404;28;20086;-91
2022/05/22 07:05:30;;;;;;;5.57;2.13;;;14.00;73.60;;;;;;5052013;28;20045;-91
2022/05/22 07:07:56;;;;;;;10.48;2.97;;;14.10;73.50;;;;;;5059068;28;20049;-91
2022/05/22 07:13:19;;;;;;;11.50;2.58;;;14.30;73.30;;;;;;5070064;28;19921;-90
2022/05/22 07:15:57;;;;;;;8.52;2.65;;;14.40;73.30;;;;;;5072730;28;20472;-90
2022/05/22 07:18:45;;;;;;;6.18;2.67;;;14.40;73.20;;;;;;5072387;28;20503;-91
2022/05/22 07:21:12;;;;;;;9.25;2.83;;;14.50;73.10;;;;;;5063538;28;20079;-91
2022/05/22 07:23:39;;;;;;;8.23;2.95;;;14.60;73.00;;;;;;5041843;28;20056;-88
2022/05/22 07:26:08;;;;;;;8.88;2.80;;;14.60;73.00;;;;;;5043461;28;20040;-88
2022/05/22 07:28:35;;;;;;;9.90;3.55;;;14.70;73.00;;;;;;5054406;28;20055;-89
2022/05/22 07:31:02;;;;;;;9.77;2.90;;;14.80;73.00;;;;;;5048012;28;20052;-89
2022/05/22 07:33:29;;;;;;;6.88;2.60;;;14.90;72.90;;;;;;5069406;28;20541;-89
2022/05/22 07:35:58;;;;;;;8.07;2.97;;;14.90;72.90;;;;;;5065044;28;20533;-89
2022/05/22 07:38:25;;;;;;;7.18;2.72;;;15.00;72.80;;;;;;5068523;28;20055;-90
2022/05/22 07:40:53;;;;;;;7.85;2.88;;;15.10;72.80;;;;;;5052611;28;20044;-89
2022/05/22 07:43:21;;;;;;;5.93;2.63;;;15.20;72.80;;;;;;5069712;28;20060;-89
2022/05/22 07:45:49;;;;;;;6.80;2.42;;;15.30;72.70;;;;;;5070104;28;20044;-89
2022/05/22 07:48:16;;;;;;;6.00;2.35;;;15.40;72.60;;;;;;5067354;28;20058;-90
2022/05/22 07:50:43;;;;;;;7.20;2.80;;;15.50;72.50;;;;;;5068900;28;20045;-89
2022/05/22 07:53:10;;;;;;;10.98;2.70;;;15.60;72.40;;;;;;5066995;28;20094;-89
2022/05/22 07:55:39;;;;;;;7.15;2.53;;;15.70;72.30;;;;;;5067725;28;20049;-89
2022/05/22 07:58:06;;;;;;;6.97;2.38;;;15.80;72.20;;;;;;5071476;28;20098;-90
2022/05/22 08:00:33;;;;;;;4.50;2.25;;;15.90;72.00;;;;;;5069432;28;20078;-90
2022/05/22 08:03:10;;;;;;;6.00;2.53;;;16.00;71.90;;;;;;5067666;28;20078;-90
2022/05/22 08:05:41;;;;;;;6.20;2.45;;;16.10;71.80;;;;;;5067356;28;20056;-89
2022/05/22 08:08:09;;;;;;;6.22;2.10;;;16.20;71.70;;;;;;5067113;28;20472;-90
2022/05/22 08:10:37;;;;;;;6.35;2.28;;;16.30;71.50;;;;;;5052013;28;20407;-89
2022/05/22 08:13:06;;;;;;;6.65;2.45;;;;;;;;;;5067448;28;20056;-91
2022/05/22 08:15:35;;;;;;;5.72;2.40;;;16.50;71.30;;;;;;5066919;28;20109;-90
2022/05/22 08:18:03;;;;;;;6.22;2.47;;;16.60;71.10;;;;;;5067266;28;20530;-91
2022/05/22 08:20:33;;;;;;;5.50;2.10;;;16.70;71.00;;;;;;5066780;28;20110;-89
2022/05/22 08:23:03;;;;;;;5.72;2.25;;;16.90;70.80;;;;;;5066908;28;20082;-90
2022/05/22 08:25:31;;;;;;;5.75;2.35;;;16.90;70.70;;;;;;5068184;28;20045;-89
2022/05/22 08:27:58;;;;;;;6.45;2.30;;;17.00;70.50;;;;;;5070922;28;20048;-90
2022/05/22 08:30:28;;;;;;;7.15;2.08;;;17.10;70.30;;;;;;5068674;28;20048;-91
2022/05/22 08:32:55;;;;;;;11.63;2.53;;;17.30;70.20;;;;;;5066811;28;20502;-90
2022/05/22 08:35:27;;;;;;;7.15;2.35;;;17.40;70.00;;;;;;5067290;28;20048;-90
2022/05/22 08:37:54;;;;;;;8.43;2.63;;;17.40;69.80;;;;;;5067107;28;20048;-90
2022/05/22 08:40:24;;;;;;;8.23;2.33;;;17.50;69.60;;;;;;5069568;28;20099;-89
2022/05/22 08:43:03;;;;;;;6.90;2.35;;;17.60;69.40;;;;;;5069898;28;20048;-90
2022/05/22 08:45:39;;;;;;;5.25;1.90;;;17.80;69.20;;;;;;5066916;28;20044;-90
2022/05/22 08:48:33;;;;;;;6.47;2.17;;;17.90;69.00;;;;;;5062695;28;20044;-91
2022/05/22 08:51:00;;;;;;;6.47;2.60;;;18.00;68.80;;;;;;5066895;28;20529;-89
2022/05/22 08:53:42;;;;;;;6.45;2.00;;;18.10;68.60;;;;;;5067008;28;20352;-90
2022/05/22 08:59:19;;;;;;;7.22;2.53;;;18.40;68.30;;;;;;5067181;28;20057;-91
2022/05/22 09:01:50;;;;;;;7.43;2.58;;;18.40;68.10;;;;;;5052261;28;20502;-90
2022/05/22 09:04:41;;;;;;;9.55;2.53;;;18.60;68.00;;;;;;5069020;28;20048;-90
2022/05/22 09:07:20;;;;;;;8.63;2.47;;;18.60;67.80;;;;;;5065721;28;20114;-90
2022/05/22 09:10:06;;;;;;;6.30;2.40;;;18.80;67.60;;;;;;5069070;28;20418;-90
2022/05/22 09:12:55;;;;;;;8.07;2.65;;;18.90;67.40;;;;;;5068415;28;20090;-91
2022/05/22 09:15:37;;;;;;;7.13;2.65;;;18.90;67.20;;;;;;5070651;28;20419;-91
2022/05/22 09:18:31;;;;;;;7.43;2.58;;;19.10;67.20;;;;;;5056933;28;20052;-91
2022/05/22 09:21:23;;;;;;;8.98;2.53;;;19.20;67.10;;;;;;5072327;28;20052;-90
2022/05/22 09:23:50;;;;;;;5.72;2.50;;;19.30;66.90;;;;;;5070368;28;20053;-90
2022/05/22 09:26:29;;;;;;;7.90;2.40;;;19.40;66.70;;;;;;5070097;28;20045;-91
2022/05/22 09:29:19;;;;;;;6.72;2.38;;;19.40;66.50;;;;;;5072004;28;20055;-89
2022/05/22 09:32:05;;;;;;;5.43;2.47;;;19.60;66.30;;;;;;4972354;28;20469;-90
2022/05/22 09:34:50;;;;;;;5.13;2.00;;;19.60;66.10;;;;;;4971810;28;20581;-90
2022/05/22 09:37:29;;;;;;;6.90;2.42;;;19.80;65.90;;;;;;4969657;28;20047;-90
2022/05/22 09:40:07;;;;;;;7.07;2.40;;;19.80;65.70;;;;;;4972530;28;20059;-90
2022/05/22 09:42:52;;;;;;;7.15;2.67;;;19.90;65.50;;;;;;4972661;28;20472;-89
2022/05/22 09:45:38;;;;;;;7.05;2.60;;;20.00;65.30;;;;;;4972180;28;20050;-90
2022/05/22 09:48:10;;;;;;;8.40;2.15;;;20.10;65.20;;;;;;4971256;28;20047;-89
2022/05/22 09:51:04;;;;;;;5.93;2.40;;;20.20;65.00;;;;;;4971795;28;20509;-89
2022/05/22 09:54:03;;;;;;;8.93;2.47;;;20.30;64.80;;;;;;4971803;28;20449;-88
2022/05/22 09:57:32;;;;;;;6.35;2.30;;;20.40;64.70;;;;;;4971470;28;20142;-88
2022/05/22 10:00:05;;;;;;;7.82;2.70;;;20.40;64.50;;;;;;4972255;28;20051;-90
2022/05/22 10:03:03;;;;;;;5.90;2.38;;;20.50;64.30;;;;;;4971619;28;20186;-91
2022/05/22 10:05:39;;;;;;;6.38;2.50;;;20.60;64.20;;;;;;4971959;28;20480;-89
2022/05/22 10:08:35;;;;;;;7.43;2.28;;;20.60;64.00;;;;;;4990059;28;20048;-89
2022/05/22 10:11:02;;;;;;;8.40;2.38;;;20.80;63.90;;;;;;5057644;28;20094;-89
2022/05/22 10:13:40;;;;;;;6.57;2.35;;;20.80;63.80;;;;;;5070996;28;20044;-90
2022/05/22 10:16:39;;;;;;;8.52;2.60;;;20.90;63.60;;;;;;5069692;28;20090;-90
2022/05/22 10:19:33;;;;;;;5.38;2.30;;;20.90;63.40;;;;;;5069857;28;20136;-90
2022/05/22 10:22:17;;;;;;;5.38;2.17;;;21.00;63.30;;;;;;5054959;28;20557;-90
2022/05/22 10:24:55;;;;;;;6.20;2.63;;;21.10;63.20;;;;;;5051633;28;20056;-92
2022/05/22 10:27:48;;;;;;;7.10;2.35;;;21.20;63.00;;;;;;5067276;28;20049;-90
2022/05/22 10:30:18;;;;;;;5.70;2.20;;;21.30;62.80;;;;;;5066617;28;20129;-89
2022/05/22 10:32:51;;;;;;;7.13;2.28;;;21.40;62.70;;;;;;5069331;28;20453;-90
2022/05/22 10:35:40;;;;;;;7.28;2.38;;;21.40;62.60;;;;;;5054196;28;20056;-90
2022/05/22 10:38:28;;;;;;;7.95;2.33;;;21.40;62.40;;;;;;5069587;28;20044;-89
2022/05/22 10:43:47;;;;;;;8.07;2.50;;;21.60;62.20;;;;;;5055670;28;20143;-89
2022/05/22 10:46:14;;;;;;;5.32;2.10;;;21.70;62.10;;;;;;5071489;28;20414;-89
2022/05/22 10:48:50;;;;;;;7.30;2.50;;;21.70;62.00;;;;;;5070429;28;20127;-90
2022/05/22 10:51:24;;;;;;;8.93;2.25;;;21.80;61.90;;;;;;5070259;28;20048;-90
2022/05/22 10:53:57;;;;;;;8.98;2.63;;;21.90;61.70;;;;;;5068814;28;20057;-90
2022/05/22 10:56:33;;;;;;;7.30;2.38;;;21.90;61.60;;;;;;5053412;28;20472;-89
2022/05/22 10:59:17;;;;;;;9.18;2.25;;;22.00;61.50;;;;;;5069734;28;20086;-90
2022/05/22 11:01:44;;;;;;;7.18;2.50;;;22.00;61.30;;;;;;5054925;28;20549;-91
2022/05/22 11:04:16;;;;;;;9.10;2.38;;;22.10;61.20;;;;;;5071693;28;20048;-90
2022/05/22 11:06:58;;;;;;;5.40;2.30;;;22.20;61.20;;;;;;5072288;28;20048;-90
2022/05/22 11:09:30;;;;;;;7.15;2.47;;;22.20;61.00;;;;;;5068057;28;20628;-91
2022/05/22 11:12:14;;;;;;;11.52;2.28;;;22.20;61.00;;;;;;5068749;28;20044;-90
2022/05/22 11:14:42;;;;;;;;;;;22.20;60.90;;;;;;5068247;28;20118;-90
2022/05/22 11:17:29;;;;;;;7.22;1.90;;;22.20;60.80;;;;;;5070303;28;20378;-90
2022/05/22 11:20:01;;;;;;;8.15;1.90;;;22.20;60.80;;;;;;5055050;28;20079;-91
2022/05/22 11:22:43;;;;;;;9.60;2.10;;;22.30;60.70;;;;;;5069738;28;20048;-90
2022/05/22 11:25:23;;;;;;;5.85;1.88;;;22.40;60.60;;;;;;5068475;28;20048;-90
2022/05/22 11:28:08;;;;;;;6.20;2.30;;;22.30;60.60;;;;;;5070640;28;20052;-90
2022/05/22 11:31:04;;;;;;;8.10;2.00;;;22.40;60.50;;;;;;5068063;28;20064;-90
2022/05/22 11:33:34;;;;;;;6.53;2.08;;;22.40;60.40;;;;;;5067759;28;20048;-89
2022/05/22 11:36:56;;;;;;;6.93;2.03;;;22.50;60.30;;;;;;5067140;28;20053;-90
2022/05/22 11:39:52;;;;;;;7.90;2.08;;;22.60;60.20;;;;;;4969785;28;20047;-90
2022/05/22 11:42:33;;;;;;;5.57;1.85;;;22.60;60.00;;;;;;4970080;28;20055;-90
2022/05/22 11:45:18;;;;;;;5.15;1.60;;;22.70;59.90;;;;;;4969692;28;20214;-91
2022/05/22 11:48:11;;;;;;;5.20;1.75;;;22.80;59.80;;;;;;4969944;28;20117;-91
2022/05/22 11:50:47;;;;;;;8.63;2.10;;;22.90;59.70;;;;;;4969983;28;20055;-90
2022/05/22 11:53:45;;;;;;;10.52;2.38;;;23.00;59.50;;;;;;4969912;28;20591;-90
2022/05/22 11:56:38;;;;;;;6.10;2.10;;;23.10;59.30;;;;;;4969079;28;20050;-90
2022/05/22 11:59:32;;;;;;;7.82;1.88;;;23.10;59.00;;;;;;4969380;28;20047;-90
2022/05/22 12:02:20;;;;;;;6.25;1.92;;;23.20;58.80;;;;;;4969944;28;20047;-91
2022/05/22 12:05:10;;;;;;;6.53;2.00;;;23.30;58.60;;;;;;4970163;28;20046;-91
2022/05/22 12:07:39;;;;;;;4.15;1.60;;;23.30;58.40;;;;;;4970023;28;20429;-90
2022/05/22 12:10:12;;;;;;;6.45;1.80;;;23.40;58.30;;;;;;4970919;28;20054;-91
2022/05/22 12:12:47;;;;;;;5.05;1.80;;;23.40;58.20;;;;;;4970726;28;20110;-90
2022/05/22 12:15:38;;;;;;;7.32;2.28;;;23.40;58.00;;;;;;5015682;28;20052;-91
2022/05/22 12:18:36;;;;;;;6.68;2.00;;;23.40;57.90;;;;;;5049330;28;20094;-90
2022/05/22 12:21:25;;;;;;;7.00;1.65;;;23.50;57.80;;;;;;5047618;28;20052;-90
2022/05/22 12:23:59;;;;;;;6.38;1.63;;;23.50;57.60;;;;;;5047450;28;20057;-90
2022/05/22 12:26:30;;;;;;;5.07;1.60;;;23.50;57.60;;;;;;5047524;28;20107;-91
2022/05/22 12:29:16;;;;;;;5.28;1.85;;;23.40;57.40;;;;;;5047489;28;20528;-90
2022/05/22 12:31:56;;;;;;;7.25;1.70;;;23.50;57.40;;;;;;5032903;28;20049;-90
2022/05/22 12:34:40;;;;;;;5.10;1.80;;;23.50;57.30;;;;;;5048058;28;20049;-92
2022/05/22 12:37:16;;;;;;;5.82;1.50;;;23.40;57.20;;;;;;5047365;28;20098;-90
2022/05/22 12:39:50;;;;;;;5.57;1.80;;;23.40;57.30;;;;;;5047713;28;20503;-91
2022/05/22 12:42:27;;;;;;;5.93;1.75;;;23.40;57.30;;;;;;5048955;28;20049;-91
2022/05/22 12:44:54;;;;;;;5.85;1.60;;;23.40;57.20;;;;;;5047394;28;20111;-90
2022/05/22 12:47:21;;;;;;;5.30;1.60;;;23.40;57.30;;;;;;5050876;28;20045;-91
2022/05/22 12:49:57;;;;;;;7.32;2.03;;;23.30;57.30;;;;;;5051521;28;20045;-90
2022/05/22 12:52:24;;;;;;;7.15;1.63;;;23.30;57.30;;;;;;5053082;28;20098;-90
2022/05/22 12:55:09;;;;;;;4.47;1.60;;;23.30;57.30;;;;;;5053983;28;20549;-90
2022/05/22 12:57:54;;;;;;;6.65;1.63;;;23.20;57.30;;;;;;5054414;28;20087;-91
2022/05/22 13:00:34;;;;;;;4.70;1.75;;;23.20;57.30;;;;;;5052920;28;20045;-91
2022/05/22 13:03:20;;;;;;;5.97;1.35;;;23.20;57.40;;;;;;5050946;28;20396;-92
2022/05/22 13:06:00;;;;;;;4.90;1.67;;;23.10;57.40;;;;;;5051249;28;20049;-93
2022/05/22 13:08:48;;;;;;;5.95;1.60;;;23.10;57.50;;;;;;5050690;28;20040;-92
2022/05/22 13:11:23;;;;;;;5.75;1.58;;;23.00;57.60;;;;;;5050868;28;20466;-91
2022/05/22 13:14:20;;;;;;;5.82;1.60;;;23.00;57.60;;;;;;5060257;28;20048;-91
2022/05/22 13:16:49;;;;;;;5.00;1.63;;;22.90;57.60;;;;;;5070839;28;20110;-91
2022/05/22 13:19:25;;;;;;;4.78;1.33;;;22.90;57.70;;;;;;5073465;28;20052;-91
2022/05/22 13:21:52;;;;;;;7.05;1.52;;;22.90;57.70;;;;;;5073590;28;20465;-91
2022/05/22 13:24:27;;;;;;;5.95;1.92;;;22.80;57.80;;;;;;5070829;28;20059;-92
2022/05/22 13:27:03;;;;;;;5.88;1.30;;;22.80;57.80;;;;;;5070565;28;20048;-91
2022/05/22 13:29:53;;;;;;;4.18;1.73;;;22.80;57.70;;;;;;5070584;28;20064;-91
2022/05/22 13:32:29;;;;;;;4.95;1.30;;;22.80;57.70;;;;;;5070647;28;20453;-91
2022/05/22 13:34:56;;;;;;;7.63;1.83;;;22.80;57.70;;;;;;5070125;28;20044;-91